createdAt,value
2023-05-04T00:01:32.014Z,8.80
2023-05-04T00:04:01.908Z,8.80
2023-05-04T00:06:30.222Z,8.70
2023-05-04T00:08:58.320Z,8.70
2023-05-04T00:11:26.882Z,8.70
2023-05-04T00:13:55.075Z,8.70
2023-05-04T00:16:23.250Z,8.70
2023-05-04T00:18:51.387Z,8.60
2023-05-04T00:21:20.866Z,8.60
2023-05-04T00:23:49.080Z,8.60
2023-05-04T00:26:17.164Z,8.60
2023-05-04T00:28:45.277Z,8.50
2023-05-04T00:31:15.261Z,8.50
2023-05-04T00:33:43.554Z,8.50
2023-05-04T00:36:11.719Z,8.50
2023-05-04T00:38:50.190Z,8.50
2023-05-04T00:41:18.776Z,8.50
2023-05-04T00:43:47.627Z,8.50
2023-05-04T00:46:16.195Z,8.50
2023-05-04T00:48:46.529Z,8.50
2023-05-04T00:51:17.399Z,8.50
2023-05-04T00:53:46.200Z,8.40
2023-05-04T00:56:15.839Z,8.50
2023-05-04T00:58:44.212Z,8.40
2023-05-04T01:01:12.803Z,8.40
2023-05-04T01:03:41.183Z,8.30
2023-05-04T01:06:17.930Z,8.30
2023-05-04T01:08:53.714Z,8.30
2023-05-04T01:12:19.160Z,8.30
2023-05-04T01:14:49.688Z,8.20
2023-05-04T01:17:17.862Z,8.20
2023-05-04T01:19:46.002Z,8.20
2023-05-04T01:22:15.676Z,8.20
2023-05-04T01:24:43.780Z,8.20
2023-05-04T01:27:18.546Z,8.10
2023-05-04T01:29:52.858Z,8.10
2023-05-04T01:32:22.566Z,8.10
2023-05-04T01:34:50.704Z,8.10
2023-05-04T01:37:20.722Z,8.00
2023-05-04T01:39:48.893Z,8.00
2023-05-04T01:42:17.128Z,8.00
2023-05-04T01:44:45.586Z,8.00
2023-05-04T01:47:13.832Z,8.00
2023-05-04T01:49:41.952Z,8.00
2023-05-04T01:52:10.072Z,7.90
2023-05-04T01:54:39.723Z,7.90
2023-05-04T01:57:07.916Z,7.90
2023-05-04T01:59:36.378Z,7.90
2023-05-04T02:02:04.610Z,7.90
2023-05-04T02:04:32.846Z,7.90
2023-05-04T02:07:00.961Z,7.80
2023-05-04T02:09:29.447Z,7.80
2023-05-04T02:11:58.926Z,7.80
2023-05-04T02:22:28.560Z,7.70
2023-05-04T02:24:56.733Z,7.70
2023-05-04T02:27:26.238Z,7.70
2023-05-04T02:29:54.325Z,7.70
2023-05-04T02:32:22.401Z,7.60
2023-05-04T02:34:50.893Z,7.60
2023-05-04T02:37:19.629Z,7.50
2023-05-04T02:39:47.735Z,7.50
2023-05-04T02:42:15.846Z,7.50
2023-05-04T02:44:45.288Z,7.50
2023-05-04T02:47:13.454Z,7.50
2023-05-04T02:49:41.555Z,7.50
2023-05-04T02:52:09.631Z,7.50
2023-05-04T02:54:38.528Z,7.50
2023-05-04T02:57:07.119Z,7.50
2023-05-04T02:59:35.306Z,7.40
2023-05-04T03:07:25.712Z,7.30
2023-05-04T03:09:53.773Z,7.30
2023-05-04T03:12:21.841Z,7.30
2023-05-04T03:14:49.978Z,7.20
2023-05-04T03:17:18.078Z,7.20
2023-05-04T03:19:46.425Z,7.10
2023-05-04T03:22:14.531Z,7.10
2023-05-04T03:24:44.009Z,7.10
2023-05-04T03:27:12.360Z,7.10
2023-05-04T03:29:40.537Z,7.00
2023-05-04T03:32:08.682Z,7.00
2023-05-04T03:34:36.892Z,7.00
2023-05-04T03:37:05.064Z,7.00
2023-05-04T03:39:33.209Z,6.90
2023-05-04T03:42:02.681Z,6.90
2023-05-04T03:48:24.492Z,6.80
2023-05-04T03:50:52.618Z,6.80
2023-05-04T03:53:20.661Z,6.80
2023-05-04T03:55:48.807Z,6.80
2023-05-04T03:58:18.248Z,6.70
2023-05-04T04:00:46.297Z,6.70
2023-05-04T04:03:14.868Z,6.70
2023-05-04T04:05:43.176Z,6.60
2023-05-04T04:17:10.228Z,6.60
2023-05-04T04:19:39.717Z,6.60
2023-05-04T04:22:07.769Z,6.70
2023-05-04T04:24:35.841Z,6.70
2023-05-04T04:27:04.069Z,6.70
2023-05-04T04:29:33.790Z,6.70
2023-05-04T04:32:01.888Z,6.70
2023-05-04T04:34:29.948Z,6.80
2023-05-04T04:36:59.585Z,6.80
2023-05-04T04:39:27.740Z,6.80
2023-05-04T04:41:55.823Z,7.00
2023-05-04T04:44:23.866Z,7.00
2023-05-04T04:46:52.897Z,7.00
2023-05-04T04:49:20.956Z,7.00
2023-05-04T04:51:49.480Z,7.10
2023-05-04T04:54:18.886Z,7.20
2023-05-04T04:56:46.949Z,7.10
2023-05-04T04:59:15.067Z,7.20
2023-05-04T05:01:43.128Z,7.30
2023-05-04T05:04:11.226Z,7.20
2023-05-04T05:06:39.338Z,7.40
2023-05-04T05:09:07.461Z,7.40
2023-05-04T05:11:36.961Z,7.60
2023-05-04T05:14:05.048Z,7.60
2023-05-04T05:16:33.149Z,7.80
2023-05-04T05:19:01.264Z,7.90
2023-05-04T05:21:29.330Z,7.80
2023-05-04T05:23:57.391Z,7.90
2023-05-04T05:26:25.559Z,8.10
2023-05-04T05:28:54.985Z,8.30
2023-05-04T05:31:23.150Z,8.20
2023-05-04T05:33:51.920Z,8.30
2023-05-04T05:36:19.996Z,8.30
2023-05-04T05:38:50.257Z,8.30
2023-05-04T05:41:18.488Z,8.50
2023-05-04T05:43:46.634Z,8.40
2023-05-04T05:46:16.141Z,8.40
2023-05-04T05:48:44.212Z,8.60
2023-05-04T05:51:12.306Z,8.60
2023-05-04T05:53:40.377Z,8.60
2023-05-04T05:56:08.616Z,8.80
2023-05-04T05:58:36.647Z,8.80
2023-05-04T06:01:04.808Z,9.10
2023-05-04T06:03:34.388Z,9.20
2023-05-04T06:06:02.657Z,9.50
2023-05-04T06:08:31.188Z,10.50
2023-05-04T06:10:59.281Z,11.70
2023-05-04T06:13:27.419Z,12.40
2023-05-04T06:15:56.125Z,13.10
2023-05-04T06:18:24.211Z,13.40
2023-05-04T06:21:00.736Z,13.20
2023-05-04T06:23:29.649Z,13.70
2023-05-04T06:25:57.773Z,13.90
2023-05-04T06:28:25.986Z,13.70
2023-05-04T06:30:54.073Z,13.40
2023-05-04T06:33:22.308Z,13.20
2023-05-04T06:35:50.365Z,12.50
2023-05-04T06:53:43.686Z,13.20
2023-05-04T06:56:11.776Z,14.00
2023-05-04T06:58:39.921Z,14.70
2023-05-04T07:01:09.251Z,14.90
2023-05-04T07:03:37.595Z,14.90
2023-05-04T07:06:06.015Z,15.10
2023-05-04T07:08:34.837Z,15.40
2023-05-04T07:11:04.331Z,15.60
2023-05-04T07:13:32.521Z,15.60
2023-05-04T07:16:00.683Z,15.50
2023-05-04T07:18:28.854Z,15.40
2023-05-04T07:21:02.075Z,15.80
2023-05-04T07:23:39.469Z,15.70
2023-05-04T07:26:09.297Z,16.10
2023-05-04T07:28:38.626Z,16.10
2023-05-04T07:31:07.021Z,15.60
2023-05-04T07:33:35.093Z,15.90
2023-05-04T07:36:03.369Z,15.40
2023-05-04T07:38:31.483Z,15.20
2023-05-04T07:40:59.712Z,15.20
2023-05-04T07:43:29.181Z,15.10
2023-05-04T07:45:57.341Z,15.60
2023-05-04T07:48:26.535Z,15.70
2023-05-04T07:50:55.010Z,16.20
2023-05-04T07:53:25.584Z,16.10
2023-05-04T07:55:54.328Z,17.30
2023-05-04T07:58:22.562Z,17.70
2023-05-04T08:00:52.099Z,17.30
2023-05-04T08:03:20.183Z,17.00
2023-05-04T08:05:48.366Z,16.70
2023-05-04T08:08:16.431Z,17.30
2023-05-04T08:10:44.543Z,17.40
2023-05-04T08:13:12.775Z,17.60
2023-05-04T08:15:41.310Z,17.70
2023-05-04T08:18:10.813Z,17.10
2023-05-04T08:20:38.984Z,16.60
2023-05-04T08:23:07.355Z,16.60
2023-05-04T08:25:37.613Z,16.70
2023-05-04T08:28:06.588Z,17.00
2023-05-04T08:30:34.701Z,17.20
2023-05-04T08:33:02.810Z,17.40
2023-05-04T08:35:32.429Z,17.90
2023-05-04T08:38:01.456Z,17.30
2023-05-04T08:40:29.593Z,17.40
2023-05-04T08:42:58.531Z,17.60
2023-05-04T08:45:27.495Z,18.00
2023-05-04T08:47:55.621Z,18.00
2023-05-04T08:50:23.879Z,17.10
2023-05-04T08:52:54.243Z,17.00
2023-05-04T08:55:23.125Z,17.80
2023-05-04T08:57:51.852Z,18.20
2023-05-04T09:00:21.060Z,18.00
2023-05-04T09:02:51.386Z,18.60
2023-05-04T09:05:19.855Z,19.10
2023-05-04T09:07:48.840Z,19.70
2023-05-04T09:10:18.757Z,20.40
2023-05-04T09:12:47.254Z,20.60
2023-05-04T09:15:17.428Z,20.10
2023-05-04T09:20:25.768Z,20.10
2023-05-04T09:23:06.914Z,20.70
2023-05-04T09:25:47.426Z,20.10
2023-05-04T09:28:15.997Z,19.90
2023-05-04T09:30:44.532Z,20.10
2023-05-04T09:33:15.404Z,19.30
2023-05-04T09:35:45.472Z,19.20
2023-05-04T09:38:16.150Z,19.90
2023-05-04T09:44:40.119Z,20.30
2023-05-04T09:47:08.941Z,20.60
2023-05-04T09:49:38.078Z,20.90
2023-05-04T09:52:07.562Z,21.00
2023-05-04T09:54:38.796Z,21.20
2023-05-04T09:57:13.173Z,21.70
2023-05-04T09:59:43.488Z,20.80
2023-05-04T10:02:22.630Z,21.20
2023-05-04T10:04:52.658Z,21.30
2023-05-04T10:07:21.248Z,21.10
2023-05-04T10:09:51.421Z,20.60
2023-05-04T10:12:19.793Z,20.30
2023-05-04T10:14:49.324Z,20.30
2023-05-04T10:17:29.447Z,20.50
2023-05-04T10:20:10.713Z,20.30
2023-05-04T10:22:56.096Z,20.90
2023-05-04T10:25:53.423Z,20.50
2023-05-04T10:28:36.958Z,20.40
2023-05-04T10:31:07.530Z,19.90
2023-05-04T10:33:42.371Z,20.10
2023-05-04T10:36:11.697Z,20.40
2023-05-04T10:38:41.398Z,20.50
2023-05-04T10:41:16.490Z,20.40
2023-05-04T10:43:51.004Z,20.00
2023-05-04T10:46:21.908Z,19.90
2023-05-04T10:48:51.057Z,19.80
2023-05-04T10:51:20.365Z,19.60
2023-05-04T10:53:48.535Z,20.00
2023-05-04T10:56:24.593Z,20.00
2023-05-04T10:58:53.136Z,20.00
2023-05-04T11:01:23.202Z,20.00
2023-05-04T11:03:53.000Z,20.30
2023-05-04T11:06:23.897Z,20.10
2023-05-04T11:09:01.138Z,20.40
2023-05-04T11:11:29.302Z,20.60
2023-05-04T11:13:58.225Z,20.60
2023-05-04T11:16:28.600Z,20.60
2023-05-04T11:19:07.588Z,20.70
2023-05-04T11:21:35.730Z,20.60
2023-05-04T11:24:07.098Z,20.70
2023-05-04T11:26:47.235Z,20.70
2023-05-04T11:29:16.817Z,20.60
2023-05-04T11:31:55.402Z,20.90
2023-05-04T11:34:23.763Z,21.20
2023-05-04T11:36:54.955Z,21.30
2023-05-04T11:39:23.132Z,21.20
2023-05-04T11:41:51.676Z,20.90
2023-05-04T11:44:20.306Z,21.10
2023-05-04T11:46:51.779Z,21.20
2023-05-04T11:49:20.250Z,21.20
2023-05-04T11:51:48.781Z,21.20
2023-05-04T11:54:32.435Z,21.10
2023-05-04T11:57:01.798Z,21.20
2023-05-04T11:59:30.278Z,21.10
2023-05-04T12:01:59.852Z,21.20
2023-05-04T12:04:34.436Z,21.30
2023-05-04T12:07:07.926Z,21.60
2023-05-04T12:09:48.014Z,21.80
2023-05-04T12:12:19.015Z,21.80
2023-05-04T12:14:52.932Z,21.60
2023-05-04T12:17:37.385Z,21.40
2023-05-04T12:20:06.724Z,21.30
2023-05-04T12:22:35.841Z,21.30
2023-05-04T12:25:04.142Z,21.50
2023-05-04T12:27:33.257Z,21.50
2023-05-04T12:30:01.421Z,21.70
2023-05-04T12:32:37.290Z,21.70
2023-05-04T12:35:06.579Z,21.80
2023-05-04T12:37:34.948Z,21.80
2023-05-04T12:40:21.091Z,21.50
2023-05-04T12:42:55.802Z,21.80
2023-05-04T12:45:24.124Z,22.00
2023-05-04T12:47:53.934Z,21.90
2023-05-04T12:50:22.296Z,21.90
2023-05-04T12:52:50.654Z,21.70
2023-05-04T12:55:18.874Z,21.60
2023-05-04T12:57:47.050Z,21.60
2023-05-04T13:00:16.366Z,21.80
2023-05-04T13:02:44.581Z,22.10
2023-05-04T13:05:15.834Z,22.20
2023-05-04T13:07:47.413Z,22.50
2023-05-04T13:10:15.623Z,22.60
2023-05-04T13:12:46.108Z,22.50
2023-05-04T13:15:16.140Z,22.10
2023-05-04T13:17:44.498Z,22.30
2023-05-04T13:20:15.816Z,22.50
2023-05-04T13:22:46.238Z,22.60
2023-05-04T13:25:16.211Z,22.50
2023-05-04T13:27:44.361Z,22.80
2023-05-04T13:30:13.324Z,22.90
2023-05-04T13:32:42.107Z,22.50
2023-05-04T13:35:10.952Z,22.20
2023-05-04T13:37:40.421Z,22.40
2023-05-04T13:40:09.740Z,22.70
2023-05-04T13:42:38.118Z,22.70
2023-05-04T13:45:07.754Z,22.70
2023-05-04T13:47:37.079Z,22.50
2023-05-04T13:50:09.804Z,22.30
2023-05-04T13:52:38.023Z,22.40
2023-05-04T13:55:08.411Z,22.50
2023-05-04T13:57:36.811Z,22.70
2023-05-04T14:00:08.382Z,22.70
2023-05-04T14:02:36.860Z,22.40
2023-05-04T14:05:05.565Z,22.50
2023-05-04T14:07:35.019Z,22.50
2023-05-04T14:10:05.864Z,22.30
2023-05-04T14:12:35.734Z,22.30
2023-05-04T14:15:04.524Z,22.50
2023-05-04T14:17:33.073Z,22.50
2023-05-04T14:20:01.408Z,22.60
2023-05-04T14:22:31.210Z,22.60
2023-05-04T14:24:59.466Z,22.80
2023-05-04T14:27:27.886Z,22.80
2023-05-04T14:29:58.198Z,22.90
2023-05-04T14:32:26.524Z,22.80
2023-05-04T14:35:01.966Z,22.40
2023-05-04T14:37:30.059Z,22.70
2023-05-04T14:39:59.470Z,22.60
2023-05-04T14:42:28.213Z,22.60
2023-05-04T14:44:57.792Z,22.60
2023-05-04T14:47:27.530Z,22.60
2023-05-04T14:49:55.972Z,22.60
2023-05-04T14:52:27.978Z,22.70
2023-05-04T14:54:56.213Z,22.80
2023-05-04T14:57:24.253Z,22.80
2023-05-04T14:59:52.385Z,22.60
2023-05-04T15:02:22.103Z,22.70
2023-05-04T15:04:50.479Z,22.80
2023-05-04T15:07:20.952Z,22.90
2023-05-04T15:09:49.160Z,22.90
2023-05-04T15:12:17.561Z,23.00
2023-05-04T15:14:46.709Z,22.90
2023-05-04T15:17:17.227Z,22.90
2023-05-04T15:19:48.309Z,22.90
2023-05-04T15:22:16.399Z,23.10
2023-05-04T15:24:44.660Z,23.30
2023-05-04T15:27:12.801Z,23.30
2023-05-04T15:29:40.870Z,23.00
2023-05-04T15:32:08.919Z,23.00
2023-05-04T15:34:36.955Z,22.90
2023-05-04T15:37:06.579Z,23.10
2023-05-04T15:39:34.696Z,23.20
2023-05-04T15:42:03.519Z,23.30
2023-05-04T15:44:32.222Z,23.30
2023-05-04T15:47:00.587Z,23.20
2023-05-04T15:49:28.720Z,23.20
2023-05-04T15:51:56.799Z,23.30
2023-05-04T15:54:26.223Z,23.30
2023-05-04T15:56:54.327Z,23.30
2023-05-04T15:59:25.216Z,23.20
2023-05-04T16:01:53.933Z,23.20
2023-05-04T16:04:22.655Z,23.00
2023-05-04T16:06:50.787Z,23.10
2023-05-04T16:09:20.722Z,23.00
2023-05-04T16:11:50.222Z,22.90
2023-05-04T16:14:18.321Z,23.10
2023-05-04T16:16:46.569Z,23.20
2023-05-04T16:19:14.804Z,23.30
2023-05-04T16:21:42.852Z,23.40
2023-05-04T16:24:12.946Z,23.50
2023-05-04T16:26:41.156Z,23.20
2023-05-04T16:29:12.960Z,23.30
2023-05-04T16:31:41.065Z,23.60
2023-05-04T16:34:09.309Z,23.50
2023-05-04T16:36:37.392Z,23.10
2023-05-04T16:39:05.812Z,23.10
2023-05-04T16:41:33.901Z,22.80
2023-05-04T16:44:02.164Z,22.60
2023-05-04T16:46:31.766Z,22.50
2023-05-04T16:48:59.917Z,22.50
2023-05-04T16:51:28.057Z,22.40
2023-05-04T16:53:56.213Z,22.50
2023-05-04T16:56:24.428Z,22.40
2023-05-04T16:58:52.646Z,22.40
2023-05-04T17:01:21.094Z,22.50
2023-05-04T17:08:12.588Z,22.30
2023-05-04T17:10:41.221Z,22.00
2023-05-04T17:13:09.445Z,22.10
2023-05-04T17:15:37.631Z,22.10
2023-05-04T17:18:07.293Z,21.90
2023-05-04T17:20:35.505Z,21.80
2023-05-04T17:23:03.663Z,21.80
2023-05-04T17:25:34.080Z,21.70
2023-05-04T17:28:02.331Z,21.80
2023-05-04T17:30:30.655Z,21.70
2023-05-04T17:32:58.778Z,21.80
2023-05-04T17:35:27.123Z,21.80
2023-05-04T17:37:58.609Z,21.70
2023-05-04T17:40:27.758Z,21.70
2023-05-04T17:42:57.931Z,21.70
2023-05-04T17:45:26.011Z,21.60
2023-05-04T17:47:54.552Z,21.40
2023-05-04T17:50:23.016Z,21.50
2023-05-04T17:52:55.110Z,21.60
2023-05-04T17:55:25.377Z,21.50
2023-05-04T17:57:54.145Z,21.50
2023-05-04T18:00:24.067Z,21.50
2023-05-04T18:02:52.216Z,21.40
2023-05-04T18:05:20.606Z,21.30
2023-05-04T18:07:48.840Z,21.20
2023-05-04T18:10:16.988Z,21.00
2023-05-04T18:12:45.149Z,20.90
2023-05-04T18:15:13.502Z,20.90
2023-05-04T18:17:42.990Z,20.70
2023-05-04T18:20:13.174Z,20.60
2023-05-04T18:22:41.295Z,20.70
2023-05-04T18:25:10.197Z,20.60
2023-05-04T18:27:38.274Z,20.60
2023-05-04T18:30:08.473Z,20.50
2023-05-04T18:32:37.054Z,20.50
2023-05-04T18:35:07.690Z,20.40
2023-05-04T18:37:35.902Z,20.30
2023-05-04T18:40:14.172Z,20.30
2023-05-04T18:42:42.275Z,20.30
2023-05-04T18:45:13.327Z,20.10
2023-05-04T18:47:41.517Z,20.10
2023-05-04T18:50:12.086Z,20.10
2023-05-04T18:52:40.200Z,20.00
2023-05-04T18:55:08.629Z,19.90
2023-05-04T18:57:37.058Z,19.70
2023-05-04T19:00:09.089Z,19.60
2023-05-04T19:02:38.188Z,19.60
2023-05-04T19:05:10.396Z,19.50
2023-05-04T19:07:40.694Z,19.40
2023-05-04T19:10:10.468Z,19.30
2023-05-04T19:12:38.616Z,19.30
2023-05-04T19:15:07.964Z,19.20
2023-05-04T19:17:36.170Z,19.10
2023-05-04T19:20:04.676Z,19.10
2023-05-04T19:22:32.844Z,19.00
2023-05-04T19:25:04.074Z,18.90
2023-05-04T19:27:32.190Z,18.90
2023-05-04T19:30:00.463Z,18.80
2023-05-04T19:32:31.069Z,18.70
2023-05-04T19:34:59.401Z,18.70
2023-05-04T19:37:27.578Z,18.70
2023-05-04T19:39:55.820Z,18.60
2023-05-04T19:42:25.407Z,18.60
2023-05-04T19:44:53.522Z,18.60
2023-05-04T19:47:22.024Z,18.50
2023-05-04T20:05:50.573Z,18.30
2023-05-04T20:08:21.117Z,18.20
2023-05-04T20:10:49.188Z,18.10
2023-05-04T20:13:17.458Z,18.00
2023-05-04T20:15:46.016Z,17.90
2023-05-04T20:18:14.188Z,17.90
2023-05-04T20:20:42.337Z,17.90
2023-05-04T20:23:13.159Z,17.90
2023-05-04T20:25:42.888Z,17.80
2023-05-04T20:28:13.431Z,17.80
2023-05-04T20:30:41.706Z,17.80
2023-05-04T20:33:09.940Z,17.80
2023-05-04T20:35:38.097Z,17.70
2023-05-04T20:38:06.273Z,17.70
2023-05-04T20:40:34.436Z,17.70
2023-05-04T20:43:03.916Z,17.60
2023-05-04T20:45:32.262Z,17.60
2023-05-04T20:48:01.250Z,17.60
2023-05-04T20:50:29.371Z,17.50
2023-05-04T20:52:57.486Z,17.40
2023-05-04T20:55:25.900Z,17.50
2023-05-04T20:57:54.030Z,17.40
2023-05-04T21:00:24.466Z,17.40
2023-05-04T21:02:52.677Z,17.40
2023-05-04T21:05:20.825Z,17.30
2023-05-04T21:07:48.918Z,17.30
2023-05-04T21:10:17.025Z,17.40
2023-05-04T21:12:45.143Z,17.40
2023-05-04T21:15:13.396Z,17.40
2023-05-04T21:17:49.874Z,17.40
2023-05-04T21:20:18.218Z,17.40
2023-05-04T21:22:46.362Z,17.40
2023-05-04T21:25:14.469Z,17.40
2023-05-04T21:27:44.309Z,17.30
2023-05-04T21:30:13.007Z,17.30
2023-05-04T21:32:42.736Z,17.30
2023-05-04T21:35:11.262Z,17.30
2023-05-04T21:37:39.385Z,17.30
2023-05-04T21:40:09.863Z,17.30
2023-05-04T21:42:37.966Z,17.30
2023-05-04T21:45:07.043Z,17.30
2023-05-04T21:47:36.307Z,17.40
2023-05-04T21:50:06.839Z,17.30
2023-05-04T21:52:35.129Z,17.40
2023-05-04T21:55:03.262Z,17.40
2023-05-04T21:57:33.273Z,17.40
2023-05-04T22:00:02.017Z,17.40
2023-05-04T22:02:30.054Z,17.30
2023-05-04T22:04:58.435Z,17.20
2023-05-04T22:07:27.889Z,17.20
2023-05-04T22:09:56.042Z,17.30
2023-05-04T22:24:14.755Z,17.70
2023-05-04T22:27:38.381Z,17.90
2023-05-04T22:30:07.913Z,17.90
2023-05-04T22:32:36.361Z,17.90
2023-05-04T22:35:04.858Z,17.90
2023-05-04T22:37:32.949Z,17.80
2023-05-04T22:40:04.692Z,17.60
2023-05-04T22:42:33.232Z,17.60
2023-05-04T22:45:01.277Z,17.50
2023-05-04T22:47:29.396Z,17.40
2023-05-04T22:49:57.665Z,17.30
2023-05-04T22:52:25.942Z,17.30
2023-05-04T22:54:53.965Z,17.30
2023-05-04T22:57:23.422Z,17.30
2023-05-04T22:59:51.943Z,17.40
2023-05-04T23:02:20.042Z,17.40
2023-05-04T23:04:48.352Z,17.30
2023-05-04T23:07:16.564Z,17.20
2023-05-04T23:09:46.265Z,17.10
2023-05-04T23:12:15.145Z,17.00
2023-05-04T23:14:44.830Z,16.90
2023-05-04T23:17:13.514Z,16.70
2023-05-04T23:19:41.618Z,16.50
2023-05-04T23:22:09.703Z,16.40
2023-05-04T23:24:37.755Z,16.30
2023-05-04T23:27:05.820Z,16.10
2023-05-04T23:29:33.938Z,16.00
2023-05-04T23:32:03.832Z,15.90
2023-05-04T23:34:32.037Z,15.90
2023-05-04T23:37:00.072Z,15.80
2023-05-04T23:39:28.185Z,15.80
2023-05-04T23:41:56.275Z,15.80
2023-05-04T23:44:24.376Z,15.80
2023-05-04T23:46:52.506Z,15.80
2023-05-04T23:49:21.892Z,15.80
2023-05-04T23:51:49.955Z,15.90
2023-05-04T23:54:18.045Z,16.00
2023-05-04T23:56:46.129Z,16.10
2023-05-04T23:59:14.258Z,16.10
